Time;durP1;ratioP1;P1;durP2;ratioP2;P2;SDS_P1;SDS_P2;PMS_P1;PMS_P2;Temp;Humidity;BMP_temperature;BMP_pressure;BME280_temperature;BME280_humidity;BME280_pressure;Samples;Min_cycle;Max_cycle;Signal;HPM_P1;HPM_P2
2023/08/20 00:02:00;;;;;;;;;2.00;2.00;;;;;25.23;54.58;101571.38;5038115;28;46310;-64
2023/08/20 00:04:30;;;;;;;;;2.75;2.75;;;;;25.26;54.06;101571.22;5038830;28;45327;-63
2023/08/20 00:06:56;;;;;;;;;3.00;3.00;;;;;25.16;54.30;101568.06;5037095;28;45772;-62
2023/08/20 00:09:21;;;;;;;;;2.00;2.00;;;;;25.06;54.78;101562.25;5052421;28;45565;-62
2023/08/20 00:11:47;;;;;;;;;4.75;3.00;;;;;25.13;54.15;101576.25;5036847;28;46010;-62
2023/08/20 00:14:16;;;;;;;;;3.00;2.00;;;;;25.03;54.00;101574.91;5037507;28;45422;-62
2023/08/20 00:16:42;;;;;;;;;4.00;3.00;;;;;24.97;54.14;101566.22;5053164;28;45510;-63
2023/08/20 00:19:08;;;;;;;;;5.75;3.00;;;;;24.87;54.57;101564.88;5037456;28;45450;-64
2023/08/20 00:21:34;;;;;;;;;3.25;2.00;;;;;24.76;54.83;101583.25;5036451;28;46214;-64
2023/08/20 00:23:59;;;;;;;;;3.00;2.00;;;;;24.75;55.10;101573.47;5036702;28;45507;-64
2023/08/20 00:26:25;;;;;;;;;5.00;2.50;;;;;24.82;54.94;101577.63;5037058;28;45448;-63
2023/08/20 00:28:51;;;;;;;;;3.00;3.00;;;;;24.79;54.91;101556.31;5037378;28;45725;-63
2023/08/20 00:31:16;;;;;;;;;2.25;2.25;;;;;24.92;54.39;101576.28;5035592;28;46024;-65
2023/08/20 00:33:43;;;;;;;;;3.00;2.25;;;;;24.83;54.72;101582.03;5035689;28;45375;-63
2023/08/20 00:36:08;;;;;;;;;4.25;3.00;;;;;24.81;54.09;101577.69;5036552;28;45414;-63
2023/08/20 00:38:37;;;;;;;;;3.50;2.00;;;;;24.75;54.20;101568.97;5037752;28;45445;-63
2023/08/20 00:41:03;;;;;;;;;4.50;3.00;;;;;24.67;53.95;101568.44;5034697;28;47729;-63
2023/08/20 00:43:29;;;;;;;;;4.00;2.50;;;;;24.62;53.85;101565.09;5036554;28;45294;-63
2023/08/20 00:45:54;;;;;;;;;4.00;3.00;;;;;24.65;54.23;101585.50;5036416;28;45469;-62
2023/08/20 00:48:20;;;;;;;;;2.25;2.25;;;;;24.60;55.01;101587.53;5037601;28;45362;-63
2023/08/20 00:50:45;;;;;;;;;3.75;3.00;;;;;24.58;54.03;101592.94;5037208;28;45389;-63
2023/08/20 00:53:13;;;;;;;;;4.00;3.00;;;;;24.53;54.63;101593.13;5036409;28;45442;-64
2023/08/20 00:55:38;;;;;;;;;1.50;1.50;;;;;24.51;54.75;101592.34;5036243;28;45450;-63
2023/08/20 00:58:04;;;;;;;;;2.50;1.00;;;;;24.56;54.75;101592.16;5036460;28;45462;-64
2023/08/20 01:00:30;;;;;;;;;1.25;1.25;;;;;24.60;54.50;101585.72;5035914;28;45371;-66
2023/08/20 01:02:55;;;;;;;;;3.00;2.00;;;;;24.71;53.99;101595.97;5036081;28;45776;-63
2023/08/20 01:05:21;;;;;;;;;3.00;1.00;;;;;24.68;53.81;101583.59;5030585;28;45615;-64
2023/08/20 01:08:17;;;;;;;;;3.00;2.00;;;;;24.62;53.98;101593.69;5030081;28;45415;-64
2023/08/20 01:10:52;;;;;;;;;2.00;2.00;;;;;24.49;53.77;101596.91;5037504;28;45478;-62
2023/08/20 01:13:18;;;;;;;;;3.50;2.00;;;;;24.31;54.76;101571.72;5036148;28;45551;-63
2023/08/20 01:15:43;;;;;;;;;2.00;2.00;;;;;24.37;54.47;101594.72;5034210;28;45498;-63
2023/08/20 01:18:09;;;;;;;;;2.50;1.50;;;;;24.26;54.84;101595.16;5035898;28;45423;-65
2023/08/20 01:20:43;;;;;;;;;5.00;3.00;;;;;24.17;54.97;101584.81;5033048;28;45457;-64
2023/08/20 01:23:39;;;;;;;;;2.00;2.00;;;;;24.15;55.27;101596.53;5036138;28;45846;-65
2023/08/20 01:26:27;;;;;;;;;3.50;3.50;;;;;24.12;54.83;101598.38;5036187;28;45504;-64
2023/08/20 01:28:53;;;;;;;;;3.25;3.25;;;;;24.03;55.41;101598.75;5034995;28;45413;-64
2023/08/20 01:31:20;;;;;;;;;5.25;3.50;;;;;23.92;55.77;101595.69;5035899;28;46236;-63
2023/08/20 01:33:46;;;;;;;;;5.25;4.25;;;;;23.64;56.06;101553.94;5034135;28;45704;-63
2023/08/20 01:36:11;;;;;;;;;7.00;6.75;;;;;23.83;55.99;101590.69;5035600;28;45570;-62
2023/08/20 01:38:37;;;;;;;;;6.50;5.50;;;;;23.94;55.58;101604.47;5036057;28;45590;-63
2023/08/20 01:41:04;;;;;;;;;6.00;4.50;;;;;23.84;55.99;101608.47;5036361;28;46017;-63
2023/08/20 01:43:29;;;;;;;;;7.25;5.25;;;;;23.86;55.41;101596.78;5039280;28;45322;-63
2023/08/20 01:45:55;;;;;;;;;4.75;4.75;;;;;23.74;55.73;101594.59;5038867;28;45380;-64
2023/08/20 01:48:20;;;;;;;;;4.00;4.00;;;;;23.70;56.58;101601.84;5038849;28;45503;-64
2023/08/20 01:50:46;;;;;;;;;5.25;3.25;;;;;23.70;56.56;101601.84;5039778;28;46433;-64
2023/08/20 01:53:12;;;;;;;;;3.50;3.00;;;;;23.63;56.75;101603.00;5039508;28;46052;-65
2023/08/20 01:55:37;;;;;;;;;3.75;3.00;;;;;23.61;56.66;101594.19;5040721;28;45477;-67
2023/08/20 01:58:03;;;;;;;;;4.50;3.00;;;;;23.77;56.40;101601.63;5036397;28;45455;-64
2023/08/20 02:00:30;;;;;;;;;6.25;2.75;;;;;23.59;56.50;101582.66;5039863;28;45394;-64
2023/08/20 02:02:56;;;;;;;;;4.50;3.00;;;;;23.69;56.34;101602.75;5040546;28;45196;-63
2023/08/20 02:05:21;;;;;;;;;4.00;4.00;;;;;23.71;56.25;101603.56;5039804;28;45446;-67
2023/08/20 02:07:47;;;;;;;;;6.75;4.00;;;;;23.66;56.28;101599.34;5038204;28;45347;-63
2023/08/20 02:10:13;;;;;;;;;5.25;3.25;;;;;23.61;56.49;101604.88;5038917;28;46162;-67
2023/08/20 02:12:39;;;;;;;;;4.75;3.00;;;;;23.66;56.67;101602.88;5039217;28;45366;-65
2023/08/20 02:15:05;;;;;;;;;3.50;1.50;;;;;23.47;57.02;101596.50;5038938;28;45394;-64
2023/08/20 02:17:32;;;;;;;;;3.50;2.25;;;;;23.39;56.92;101587.91;5039102;28;45520;-62
2023/08/20 02:19:57;;;;;;;;;3.75;2.50;;;;;23.50;56.84;101599.06;5039139;28;46093;-64
2023/08/20 02:22:23;;;;;;;;;2.50;2.50;;;;;23.50;56.95;101607.09;5039227;28;45416;-63
2023/08/20 02:24:49;;;;;;;;;2.25;2.00;;;;;23.48;56.83;101606.25;5039096;28;45460;-63
2023/08/20 02:27:14;;;;;;;;;2.00;1.25;;;;;23.48;57.42;101607.13;5039043;28;45420;-62
2023/08/20 02:29:40;;;;;;;;;2.50;2.50;;;;;23.36;57.13;101601.38;5038348;28;46368;-63
2023/08/20 02:32:05;;;;;;;;;5.00;2.00;;;;;23.37;57.32;101604.00;5038324;28;45578;-65
2023/08/20 02:34:31;;;;;;;;;3.00;3.00;;;;;23.39;57.49;101599.47;5039153;28;45445;-63
2023/08/20 02:36:56;;;;;;;;;2.00;2.00;;;;;23.38;57.85;101605.75;5039912;28;45504;-63
2023/08/20 02:39:24;;;;;;;;;2.50;1.25;;;;;23.39;57.12;101594.09;5039831;28;46196;-63
2023/08/20 02:41:49;;;;;;;;;3.00;2.00;;;;;23.40;57.17;101597.69;5038285;28;45470;-63
2023/08/20 02:44:15;;;;;;;;;5.00;3.50;;;;;23.43;57.22;101605.56;5038560;28;45395;-62
2023/08/20 02:46:40;;;;;;;;;3.25;3.00;;;;;23.36;57.17;101593.38;5036957;28;45458;-64
2023/08/20 02:49:07;;;;;;;;;6.25;1.75;;;;;23.38;57.16;101594.19;5037983;28;45345;-62
2023/08/20 02:51:32;;;;;;;;;3.25;2.50;;;;;23.40;57.13;101608.38;5036269;28;45593;-64
2023/08/20 02:53:58;;;;;;;;;2.50;2.50;;;;;23.38;56.95;101603.06;5038330;28;45564;-64
2023/08/20 02:56:23;;;;;;;;;2.25;2.25;;;;;23.38;56.88;101587.03;5037629;28;45533;-64
2023/08/20 02:58:49;;;;;;;;;2.00;2.00;;;;;23.49;57.00;101603.53;5037868;28;46066;-63
2023/08/20 03:01:23;;;;;;;;;3.75;3.00;;;;;23.37;57.39;101603.13;5038128;28;45360;-63
2023/08/20 03:03:48;;;;;;;;;2.50;2.00;;;;;23.33;57.13;101590.81;5037920;28;45481;-64
2023/08/20 03:06:14;;;;;;;;;5.50;4.00;;;;;23.27;57.56;101600.78;5037587;28;45541;-62
2023/08/20 03:08:40;;;;;;;;;9.00;5.00;;;;;23.23;57.96;101592.94;5037101;28;46075;-61
2023/08/20 03:11:05;;;;;;;;;5.00;3.00;;;;;23.22;57.92;101594.75;5037206;28;45566;-61
2023/08/20 03:13:31;;;;;;;;;8.25;3.50;;;;;23.14;57.76;101586.16;5037624;28;45753;-62
2023/08/20 03:15:57;;;;;;;;;4.00;2.33;;;;;23.18;58.06;101595.81;5037534;28;45422;-62
2023/08/20 03:18:22;;;;;;;;;5.75;3.00;;;;;23.15;57.58;101587.88;5037604;28;45470;-63
2023/08/20 03:20:48;;;;;;;;;5.50;3.00;;;;;23.08;58.66;101605.94;5037581;28;45377;-62
2023/08/20 03:23:13;;;;;;;;;4.50;4.00;;;;;22.91;58.63;101600.31;5037644;28;45547;-64
2023/08/20 03:25:39;;;;;;;;;5.00;3.00;;;;;22.88;58.72;101599.56;5037994;28;45437;-62
2023/08/20 03:28:05;;;;;;;;;3.00;3.00;;;;;22.89;59.06;101595.94;5037965;28;45460;-64
2023/08/20 03:30:31;;;;;;;;;4.00;3.33;;;;;22.84;59.18;101596.13;5037364;28;45584;-63
2023/08/20 03:32:57;;;;;;;;;7.25;4.75;;;;;22.79;59.32;101596.28;5037660;28;45447;-62
2023/08/20 03:35:23;;;;;;;;;5.67;4.33;;;;;22.80;59.07;101602.47;5037129;28;45461;-63
2023/08/20 03:37:48;;;;;;;;;4.75;3.00;;;;;22.76;59.31;101598.19;5036812;28;45357;-63
2023/08/20 03:40:14;;;;;;;;;3.75;3.00;;;;;22.81;59.15;101596.22;5037063;28;45436;-64
2023/08/20 03:42:40;;;;;;;;;5.00;3.50;;;;;22.79;59.12;101590.94;5052474;28;45358;-62
2023/08/20 03:45:06;;;;;;;;;3.67;3.33;;;;;22.80;59.17;101592.69;5037020;28;45452;-64
2023/08/20 03:47:31;;;;;;;;;4.67;3.00;;;;;22.82;58.97;101597.97;5037879;28;45418;-64
2023/08/20 03:49:57;;;;;;;;;3.25;2.75;;;;;22.73;59.47;101598.28;5036757;28;45403;-64
2023/08/20 03:52:22;;;;;;;;;3.00;3.00;;;;;22.69;59.73;101592.19;5036491;28;45541;-64
2023/08/20 03:54:48;;;;;;;;;3.00;3.00;;;;;22.66;59.78;101605.66;5037448;28;46011;-63
2023/08/20 03:57:13;;;;;;;;;4.33;3.00;;;;;22.52;59.91;101594.56;5038246;28;45417;-63
2023/08/20 03:59:39;;;;;;;;;4.00;4.00;;;;;22.54;59.88;101598.03;5037622;28;45543;-63
2023/08/20 04:02:04;;;;;;;;;3.00;2.33;;;;;22.52;60.16;101598.13;5037109;28;45357;-63
2023/08/20 04:04:30;;;;;;;;;2.00;2.00;;;;;22.54;60.20;101595.38;5037001;28;45495;-63
2023/08/20 04:06:56;;;;;;;;;4.67;2.33;;;;;22.62;60.10;101599.53;5036870;28;45481;-64
2023/08/20 04:09:21;;;;;;;;;2.00;2.00;;;;;22.61;60.10;101602.25;5038597;28;45442;-63
2023/08/20 04:11:47;;;;;;;;;3.75;3.75;;;;;22.63;60.21;101611.09;5054005;28;45519;-64
2023/08/20 04:14:18;;;;;;;;;3.25;3.25;;;;;22.57;60.19;101596.16;5038112;28;45488;-63
2023/08/20 04:16:44;;;;;;;;;5.50;3.75;;;;;22.56;60.40;101604.22;5025664;28;46545;-63
2023/08/20 04:19:10;;;;;;;;;2.50;2.50;;;;;22.64;60.29;101612.84;5034307;28;45406;-62
2023/08/20 04:21:35;;;;;;;;;3.00;2.00;;;;;22.59;60.40;101598.75;5037023;28;45400;-68
2023/08/20 04:24:01;;;;;;;;;2.75;2.75;;;;;22.67;60.36;101617.22;5035577;28;45463;-66
2023/08/20 04:26:26;;;;;;;;;2.00;2.00;;;;;22.79;60.16;101625.66;5036887;28;46192;-70
2023/08/20 04:28:52;;;;;;;;;3.33;2.00;;;;;22.93;59.84;101630.50;5037047;28;45533;-67
2023/08/20 04:31:17;;;;;;;;;4.00;2.75;;;;;23.06;59.22;101633.66;5036853;28;45528;-64
2023/08/20 04:33:45;;;;;;;;;3.00;2.00;;;;;23.15;59.11;101625.28;5036749;28;45450;-66
2023/08/20 04:36:14;;;;;;;;;5.00;3.00;;;;;22.95;59.40;101614.44;5036197;28;45430;-62
2023/08/20 04:38:40;;;;;;;;;3.25;3.25;;;;;22.95;59.51;101611.78;5034700;28;45517;-62
2023/08/20 04:41:05;;;;;;;;;3.00;3.00;;;;;22.99;59.50;101624.09;5036102;28;45448;-61
2023/08/20 04:43:31;;;;;;;;;2.00;2.00;;;;;22.99;59.65;101629.44;5036686;28;45533;-62
2023/08/20 04:45:56;;;;;;;;;2.25;2.25;;;;;22.99;59.54;101625.00;5036006;28;45584;-61
2023/08/20 04:48:22;;;;;;;;;5.00;3.00;;;;;23.00;59.96;101626.72;5036346;28;45462;-62
2023/08/20 04:50:48;;;;;;;;;5.50;3.75;;;;;22.96;59.77;101617.03;5036773;28;45320;-62
2023/08/20 04:53:13;;;;;;;;;3.33;3.00;;;;;22.94;59.62;101621.56;5036531;28;45374;-63
2023/08/20 04:55:39;;;;;;;;;3.00;3.00;;;;;23.00;59.59;101632.06;5036776;28;45468;-63
2023/08/20 04:58:04;;;;;;;;;4.75;3.25;;;;;22.93;59.79;101626.97;5037468;28;45467;-64
2023/08/20 05:00:30;;;;;;;;;3.00;2.75;;;;;22.89;59.90;101636.00;5036162;28;45390;-61
2023/08/20 05:02:56;;;;;;;;;3.00;3.00;;;;;22.83;60.12;101635.31;5036399;28;45410;-64
2023/08/20 05:05:21;;;;;;;;;3.67;3.00;;;;;22.85;59.76;101641.47;5034297;28;45585;-64
2023/08/20 05:07:53;;;;;;;;;6.25;3.75;;;;;22.85;59.42;101633.47;5036220;28;45441;-66
2023/08/20 05:10:20;;;;;;;;;2.67;2.67;;;;;22.80;60.18;101650.56;5035677;28;46129;-63
2023/08/20 05:12:45;;;;;;;;;5.00;3.67;;;;;22.64;61.18;101642.22;5037423;28;45436;-63
2023/08/20 05:15:11;;;;;;;;;3.00;3.00;;;;;22.57;60.75;101632.66;5036730;28;45635;-63
2023/08/20 05:17:37;;;;;;;;;2.50;2.50;;;;;22.59;60.87;101652.16;5035266;28;45487;-63
2023/08/20 05:20:03;;;;;;;;;3.50;3.00;;;;;22.49;60.73;101618.69;5039534;28;45542;-63
2023/08/20 05:22:29;;;;;;;;;4.50;3.00;;;;;22.58;60.96;101642.41;5039229;28;45486;-64
2023/08/20 05:24:54;;;;;;;;;5.50;2.50;;;;;22.71;60.78;101649.09;5039842;28;45505;-63
2023/08/20 05:27:20;;;;;;;;;6.00;3.00;;;;;22.78;60.60;101637.28;5040543;28;45801;-64
2023/08/20 05:29:45;;;;;;;;;37.00;28.33;;;;;22.78;60.55;101653.31;5040865;28;45437;-65
2023/08/20 05:32:11;;;;;;;;;16.33;12.67;;;;;22.68;60.90;101648.31;5039348;28;45483;-65
2023/08/20 05:34:37;;;;;;;;;7.00;6.00;;;;;22.74;60.61;101651.66;5039352;28;45488;-67
2023/08/20 05:37:03;;;;;;;;;4.25;4.25;;;;;22.75;60.81;101658.72;5040788;28;45417;-68
2023/08/20 05:39:30;;;;;;;;;4.00;4.00;;;;;22.59;61.01;101641.47;5041998;28;45543;-64
2023/08/20 05:41:56;;;;;;;;;3.00;3.00;;;;;22.71;60.94;101653.53;5040866;28;45334;-63
2023/08/20 05:44:22;;;;;;;;;2.50;2.00;;;;;22.74;60.68;101661.47;5041337;28;45781;-63
2023/08/20 05:46:48;;;;;;;;;4.00;4.00;;;;;22.86;60.37;101651.22;5039560;28;45481;-63
2023/08/20 05:49:15;;;;;;;;;5.00;3.50;;;;;23.09;60.00;101662.94;5040084;28;45560;-63
2023/08/20 05:51:42;;;;;;;;;2.50;2.50;;;;;23.25;59.40;101657.91;5039501;28;45499;-63
2023/08/20 05:54:07;;;;;;;;;4.00;3.25;;;;;23.27;59.27;101662.25;5039447;28;45427;-64
2023/08/20 05:56:33;;;;;;;;;3.50;3.50;;;;;23.19;59.71;101653.66;5038838;28;45349;-64
2023/08/20 05:58:58;;;;;;;;;3.75;3.00;;;;;23.22;59.58;101664.22;5038553;28;45358;-64
2023/08/20 06:01:24;;;;;;;;;5.00;3.50;;;;;23.31;59.63;101656.81;5038825;28;45414;-64
2023/08/20 06:03:49;;;;;;;;;3.00;3.00;;;;;23.40;59.52;101648.47;5038776;28;45419;-64
2023/08/20 06:06:15;;;;;;;;;5.00;3.25;;;;;23.53;59.35;101649.75;5039000;28;45293;-64
2023/08/20 06:08:41;;;;;;;;;6.75;4.75;;;;;23.57;58.88;101647.84;5037464;28;45594;-64
2023/08/20 06:11:06;;;;;;;;;4.25;3.25;;;;;23.61;58.60;101669.06;5030960;28;45632;-64
2023/08/20 06:13:32;;;;;;;;;3.00;3.00;;;;;23.65;59.00;101664.44;5033727;28;45759;-63
2023/08/20 06:15:58;;;;;;;;;4.50;4.00;;;;;23.86;58.33;101677.03;5039036;28;45425;-64
2023/08/20 06:18:23;;;;;;;;;3.25;3.00;;;;;24.01;58.16;101686.25;5040032;28;45377;-64
2023/08/20 06:20:49;;;;;;;;;8.00;3.00;;;;;23.98;57.90;101681.03;5037629;28;45369;-65
2023/08/20 06:23:14;;;;;;;;;6.75;5.00;;;;;23.98;57.95;101677.50;5038550;28;45540;-65
2023/08/20 06:25:40;;;;;;;;;4.25;4.25;;;;;23.95;58.00;101675.81;5038384;28;45500;-64
2023/08/20 06:28:05;;;;;;;;;4.50;3.25;;;;;23.98;58.02;101674.81;5038174;28;45532;-64
2023/08/20 06:30:31;;;;;;;;;6.00;2.50;;;;;24.00;59.56;101686.34;5039377;28;45415;-65
2023/08/20 06:32:56;;;;;;;;;4.75;4.00;;;;;24.05;58.64;101679.00;5039936;28;46071;-64
2023/08/20 06:35:35;;;;;;;;;5.25;4.25;;;;;24.08;58.42;101668.16;5039850;28;45495;-65
2023/08/20 06:38:00;;;;;;;;;6.00;3.00;;;;;24.22;57.55;101681.84;5036915;28;45752;-63
2023/08/20 06:40:26;;;;;;;;;3.50;3.50;;;;;24.28;58.14;101680.75;5038491;28;45568;-64
2023/08/20 06:42:51;;;;;;;;;4.25;4.00;;;;;24.45;57.16;101680.94;5037583;28;45642;-67
2023/08/20 06:45:17;;;;;;;;;6.00;3.25;;;;;24.47;57.42;101686.28;5038098;28;45502;-66
2023/08/20 06:47:42;;;;;;;;;4.00;4.00;;;;;24.57;58.24;101687.63;5038238;28;45395;-67
2023/08/20 06:50:08;;;;;;;;;5.75;5.00;;;;;24.63;58.01;101668.63;5038549;28;45331;-63
2023/08/20 06:52:34;;;;;;;;;5.00;5.00;;;;;24.85;57.97;101684.66;5037714;28;45524;-65
2023/08/20 06:54:59;;;;;;;;;5.25;4.50;;;;;24.94;58.03;101689.63;5036938;28;45453;-65
2023/08/20 06:57:25;;;;;;;;;3.50;3.50;;;;;25.01;57.47;101673.25;5037673;28;45495;-64
2023/08/20 06:59:50;;;;;;;;;3.75;3.75;;;;;25.10;57.36;101678.22;5037886;28;45500;-64
2023/08/20 07:02:16;;;;;;;;;3.00;3.00;;;;;25.17;55.93;101687.72;5037671;28;46497;-64
2023/08/20 07:04:41;;;;;;;;;3.50;3.50;;;;;25.13;56.18;101689.69;5037363;28;45344;-65
2023/08/20 07:07:07;;;;;;;;;4.00;3.00;;;;;25.14;55.87;101685.19;5038746;28;45365;-63
2023/08/20 07:09:34;;;;;;;;;3.50;3.25;;;;;25.01;55.79;101673.25;5039316;28;45437;-65
2023/08/20 07:11:59;;;;;;;;;4.50;4.00;;;;;25.04;56.30;101679.38;5036085;28;48233;-64
2023/08/20 07:14:25;;;;;;;;;4.25;4.25;;;;;25.14;55.87;101698.59;5037276;28;45498;-64
2023/08/20 07:16:50;;;;;;;;;4.00;3.25;;;;;25.07;55.96;101678.38;5037228;28;45831;-65
2023/08/20 07:19:16;;;;;;;;;4.25;4.25;;;;;25.03;55.93;101700.88;5037123;28;45433;-64
2023/08/20 07:21:41;;;;;;;;;6.75;3.50;;;;;24.91;56.86;101692.41;5036962;28;45537;-64
2023/08/20 07:24:07;;;;;;;;;8.25;6.00;;;;;24.80;57.00;101686.66;5037478;28;45506;-63
2023/08/20 07:26:33;;;;;;;;;4.75;4.00;;;;;24.61;57.49;101683.03;5037498;28;45543;-64
2023/08/20 07:28:59;;;;;;;;;5.50;5.50;;;;;24.54;57.40;101699.34;5037816;28;45485;-64
2023/08/20 07:31:32;;;;;;;;;4.50;3.25;;;;;24.43;58.37;101698.00;5037192;28;46786;-64
2023/08/20 07:34:00;;;;;;;;;4.00;4.00;;;;;24.48;58.41;101699.56;5037209;28;45551;-64
2023/08/20 07:36:26;;;;;;;;;5.00;5.00;;;;;24.44;58.58;101695.28;5035397;28;45551;-62
2023/08/20 07:38:53;;;;;;;;;6.00;5.50;;;;;24.40;59.33;101688.28;5037102;28;45481;-62
2023/08/20 07:41:19;;;;;;;;;5.50;5.00;;;;;24.50;58.81;101694.16;5036138;28;45407;-63
2023/08/20 07:43:45;;;;;;;;;4.00;4.00;;;;;24.57;58.87;101689.44;5036667;28;45323;-63
2023/08/20 07:46:15;;;;;;;;;3.50;3.50;;;;;24.69;58.85;101670.16;5037149;28;45449;-63
2023/08/20 07:48:40;;;;;;;;;6.25;4.75;;;;;24.85;58.85;101684.66;5037136;28;45468;-63
2023/08/20 07:51:06;;;;;;;;;9.00;5.00;;;;;24.71;58.40;101647.72;5032302;28;45466;-63
2023/08/20 07:53:33;;;;;;;;;4.75;4.75;;;;;25.00;58.57;101688.47;5036562;28;45406;-63
2023/08/20 07:56:00;;;;;;;;;5.50;4.50;;;;;25.11;58.65;101688.03;5036472;28;45363;-63
2023/08/20 07:58:26;;;;;;;;;6.75;5.00;;;;;25.18;58.29;101694.88;5037077;28;45564;-63
2023/08/20 08:00:52;;;;;;;;;5.00;5.00;;;;;25.23;58.71;101692.00;5036936;28;45563;-63
2023/08/20 08:03:17;;;;;;;;;5.50;3.50;;;;;25.34;58.09;101700.41;5036589;28;45426;-63
2023/08/20 08:05:50;;;;;;;;;5.00;5.00;;;;;25.32;58.58;101703.19;5036240;28;45532;-62
2023/08/20 08:08:17;;;;;;;;;5.00;5.00;;;;;25.34;58.61;101698.63;5036837;28;45493;-63
2023/08/20 08:10:44;;;;;;;;;5.00;5.00;;;;;25.36;59.01;101703.91;5036559;28;46201;-64
2023/08/20 08:13:11;;;;;;;;;6.00;5.75;;;;;25.33;59.15;101693.31;5037268;28;45537;-64
2023/08/20 08:15:37;;;;;;;;;6.50;5.25;;;;;25.47;59.26;101698.94;5038216;28;45427;-63
2023/08/20 08:18:03;;;;;;;;;6.75;5.25;;;;;25.59;58.86;101698.38;5037053;28;45320;-63
2023/08/20 08:20:32;;;;;;;;;6.00;5.00;;;;;25.64;58.62;101687.44;5036613;28;45575;-64
2023/08/20 08:22:58;;;;;;;;;6.00;6.00;;;;;25.81;58.40;101703.63;5035979;28;45425;-64
2023/08/20 08:25:23;;;;;;;;;5.25;5.25;;;;;25.73;58.97;101707.63;5035898;28;45431;-63
2023/08/20 08:27:49;;;;;;;;;9.25;6.25;;;;;25.63;58.70;101715.22;5036194;28;45472;-64
2023/08/20 08:30:14;;;;;;;;;5.75;4.50;;;;;25.70;58.58;101715.78;5036291;28;45521;-63
2023/08/20 08:32:40;;;;;;;;;5.25;5.00;;;;;25.84;58.95;101718.72;5037540;28;45339;-63
2023/08/20 08:35:06;;;;;;;;;5.00;5.00;;;;;25.80;58.04;101706.38;5037012;28;45333;-63
2023/08/20 08:37:32;;;;;;;;;6.75;6.50;;;;;26.03;58.32;101721.47;5036272;28;45460;-64
2023/08/20 08:39:58;;;;;;;;;6.00;5.25;;;;;26.18;57.48;101726.09;5036557;28;45475;-63
2023/08/20 08:42:24;;;;;;;;;4.00;3.25;;;;;26.22;58.13;101722.31;5037909;28;45446;-64
2023/08/20 08:44:50;;;;;;;;;6.75;5.50;;;;;26.28;57.50;101722.97;5037760;28;45511;-65
2023/08/20 08:47:16;;;;;;;;;5.25;5.25;;;;;26.32;57.25;101721.88;5036569;28;45596;-62
2023/08/20 08:49:43;;;;;;;;;5.25;5.00;;;;;26.42;57.47;101720.47;5036041;28;45509;-64
2023/08/20 08:52:11;;;;;;;;;6.00;4.25;;;;;26.44;57.55;101715.91;5050776;28;45628;-64
2023/08/20 08:54:36;;;;;;;;;8.00;7.25;;;;;26.64;56.80;101725.69;5036075;28;45447;-68
2023/08/20 08:57:02;;;;;;;;;11.00;8.00;;;;;26.68;57.03;101718.34;5036687;28;45305;-66
2023/08/20 08:59:27;;;;;;;;;6.00;6.00;;;;;26.73;56.98;101721.66;5035549;28;45833;-63
2023/08/20 09:01:56;;;;;;;;;7.75;7.75;;;;;26.78;57.00;101714.25;5035660;28;45345;-64
2023/08/20 09:04:22;;;;;;;;;7.00;5.25;;;;;26.71;57.03;101719.06;5034718;28;45358;-67
2023/08/20 09:06:52;;;;;;;;;6.50;6.50;;;;;26.72;57.36;101709.16;5033918;28;45954;-64
2023/08/20 09:09:19;;;;;;;;;9.25;8.00;;;;;26.66;57.28;101699.59;5037354;28;45456;-67
2023/08/20 09:11:48;;;;;;;;;5.00;4.25;;;;;26.65;57.07;101698.75;5036259;28;46709;-70
2023/08/20 09:14:27;;;;;;;;;7.00;7.00;;;;;26.76;56.76;101708.94;5036980;28;45428;-65
2023/08/20 09:17:01;;;;;;;;;8.00;8.00;;;;;26.71;56.98;101699.38;5035477;28;45470;-66
2023/08/20 09:19:36;;;;;;;;;7.75;7.25;;;;;26.64;57.39;101690.75;5034319;28;46435;-65
2023/08/20 09:22:02;;;;;;;;;7.50;7.50;;;;;26.71;57.38;101683.25;5034600;28;45403;-66
2023/08/20 09:24:39;;;;;;;;;8.50;6.75;;;;;26.92;57.23;101689.34;5035261;28;45537;-65
2023/08/20 09:27:05;;;;;;;;;5.75;5.75;;;;;27.06;57.08;101689.50;5034902;28;45341;-66
2023/08/20 09:29:48;;;;;;;;;7.00;5.25;;;;;27.24;56.84;101687.69;5033661;28;47465;-66
2023/08/20 09:32:19;;;;;;;;;5.00;5.00;;;;;27.39;55.75;101680.63;5035937;28;45461;-65
2023/08/20 09:34:45;;;;;;;;;9.00;7.00;;;;;27.46;55.34;101682.03;5022174;28;45496;-66
2023/08/20 09:37:13;;;;;;;;;6.50;6.00;;;;;27.52;54.62;101680.84;5034250;28;45471;-64
2023/08/20 09:39:38;;;;;;;;;6.00;6.00;;;;;27.54;54.55;101679.78;5032500;28;46947;-65
2023/08/20 09:42:06;;;;;;;;;11.75;8.50;;;;;27.61;54.35;101680.34;5035053;28;45354;-64
2023/08/20 09:44:36;;;;;;;;;6.50;5.00;;;;;27.70;53.95;101679.84;5034776;28;45363;-63
2023/08/20 09:47:04;;;;;;;;;7.00;5.50;;;;;27.75;54.36;101680.44;5025224;28;45533;-63
2023/08/20 09:49:37;;;;;;;;;3.50;3.50;;;;;27.87;53.86;101681.63;5035789;28;45647;-61
2023/08/20 09:52:05;;;;;;;;;7.20;5.80;;;;;28.02;53.95;101688.81;5034435;28;45631;-63
2023/08/20 09:55:00;;;;;;;;;11.75;8.00;;;;;28.08;53.28;101685.78;5033657;28;45893;-63
2023/08/20 09:57:31;;;;;;;;;7.75;6.50;;;;;28.13;53.18;101683.69;5027889;28;45205;-63
2023/08/20 09:59:58;;;;;;;;;6.50;6.25;;;;;28.24;52.83;101684.94;5035037;28;45856;-64
2023/08/20 10:02:25;;;;;;;;;7.40;6.40;;;;;28.17;52.48;101684.41;5033666;28;45447;-63
2023/08/20 10:04:52;;;;;;;;;7.00;6.00;;;;;28.21;52.60;101688.63;5036889;28;45469;-63
2023/08/20 10:07:18;;;;;;;;;7.00;7.00;;;;;28.32;52.68;101688.03;5038018;28;45361;-63
2023/08/20 10:09:46;;;;;;;;;5.25;5.25;;;;;28.44;51.58;101681.94;5038428;28;46168;-63
2023/08/20 10:12:14;;;;;;;;;7.20;5.00;;;;;28.52;51.37;101679.72;5036785;28;45424;-63
2023/08/20 10:14:41;;;;;;;;;6.20;5.60;;;;;28.65;51.31;101676.28;5038236;28;45256;-63
2023/08/20 10:17:11;;;;;;;;;8.00;6.50;;;;;28.78;50.54;101674.56;5038577;28;45465;-63
2023/08/20 10:19:37;;;;;;;;;6.00;6.00;;;;;28.86;51.61;101679.53;5038539;28;45727;-63
2023/08/20 10:22:04;;;;;;;;;7.20;6.20;;;;;28.83;51.18;101680.59;5038647;28;45528;-63
2023/08/20 10:24:41;;;;;;;;;5.20;5.20;;;;;28.96;51.18;101672.59;5037960;28;45303;-62
2023/08/20 10:27:12;;;;;;;;;5.00;5.00;;;;;29.10;50.88;101674.50;5038538;28;45383;-64
2023/08/20 10:29:39;;;;;;;;;7.00;4.60;;;;;29.23;50.77;101674.59;5054201;28;46598;-65
2023/08/20 10:32:09;;;;;;;;;7.60;6.80;;;;;29.38;50.02;101670.97;5038141;28;45314;-64
2023/08/20 10:34:42;;;;;;;;;6.00;6.00;;;;;29.44;50.09;101673.25;5037447;28;45375;-63
2023/08/20 10:37:13;;;;;;;;;6.75;6.00;;;;;29.48;49.66;101663.16;5039146;28;45276;-69
2023/08/20 10:39:39;;;;;;;;;7.40;7.00;;;;;29.64;48.82;101673.81;5038780;28;46250;-69
2023/08/20 10:42:26;;;;;;;;;11.00;8.80;;;;;29.70;48.22;101665.38;5039088;28;45432;-63
2023/08/20 10:45:10;;;;;;;;;11.40;9.00;;;;;29.68;48.66;101667.31;5039086;28;45446;-65
2023/08/20 10:47:48;;;;;;;;;9.50;8.00;;;;;29.70;48.79;101655.44;5038338;28;45463;-65
2023/08/20 10:50:18;;;;;;;;;10.25;9.50;;;;;29.42;48.60;101667.09;5037961;28;45408;-64
2023/08/20 10:52:55;;;;;;;;;15.60;14.20;;;;;29.32;49.59;101653.31;5039131;28;45439;-66
2023/08/20 10:55:24;;;;;;;;;13.20;10.80;;;;;29.34;49.58;101656.78;5037491;28;45331;-66
2023/08/20 10:58:02;;;;;;;;;11.75;11.00;;;;;29.42;48.78;101637.41;5037657;28;45355;-65
2023/08/20 11:00:28;;;;;;;;;9.50;9.50;;;;;29.60;49.43;101647.03;5036237;28;46519;-66
2023/08/20 11:02:55;;;;;;;;;10.40;8.60;;;;;29.46;48.82;101644.34;5036714;28;45421;-65
2023/08/20 11:05:21;;;;;;;;;9.50;8.75;;;;;29.54;48.96;101644.75;5038171;28;45707;-66
2023/08/20 11:07:48;;;;;;;;;8.00;7.80;;;;;29.72;48.77;101661.63;5037967;28;45525;-65
2023/08/20 11:10:15;;;;;;;;;7.60;7.60;;;;;29.83;49.02;101660.94;5041310;28;46185;-64
2023/08/20 11:12:47;;;;;;;;;6.00;5.20;;;;;29.95;48.28;101662.84;5040381;28;45404;-67
2023/08/20 11:15:20;;;;;;;;;7.00;6.40;;;;;30.06;48.20;101658.56;5056552;28;45565;-64
2023/08/20 11:17:47;;;;;;;;;6.75;5.00;;;;;30.26;47.33;101660.84;5024098;28;45645;-65
2023/08/20 11:20:14;;;;;;;;;7.80;6.40;;;;;30.40;46.71;101652.69;5036510;28;46560;-65
2023/08/20 11:22:44;;;;;;;;;2.80;2.80;;;;;30.54;45.64;101662.56;5041277;28;45239;-65
2023/08/20 11:25:13;;;;;;;;;7.20;5.60;;;;;30.64;45.55;101652.00;5038995;28;45217;-64